sensor_id;sensor_type;location;lat;lon;timestamp;P1;durP1;ratioP1;P2;durP2;ratioP2
47896;SDS011;39629;51.400;5.494;2022-12-20T00:02:34;3.15;;;1.38;;
47896;SDS011;39629;51.400;5.494;2022-12-20T00:07:36;4.10;;;1.35;;
47896;SDS011;39629;51.400;5.494;2022-12-20T00:12:38;2.47;;;1.30;;
47896;SDS011;39629;51.400;5.494;2022-12-20T00:17:40;5.43;;;1.35;;
47896;SDS011;39629;51.400;5.494;2022-12-20T00:22:42;2.92;;;1.23;;
47896;SDS011;39629;51.400;5.494;2022-12-20T00:27:45;2.63;;;1.27;;
47896;SDS011;39629;51.400;5.494;2022-12-20T00:32:46;3.40;;;1.30;;
47896;SDS011;39629;51.400;5.494;2022-12-20T00:37:48;1.95;;;1.10;;
47896;SDS011;39629;51.400;5.494;2022-12-20T00:42:51;1.70;;;1.17;;
47896;SDS011;39629;51.400;5.494;2022-12-20T00:47:53;1.58;;;0.90;;
47896;SDS011;39629;51.400;5.494;2022-12-20T00:52:54;2.97;;;1.33;;
47896;SDS011;39629;51.400;5.494;2022-12-20T00:57:57;2.25;;;1.15;;
47896;SDS011;39629;51.400;5.494;2022-12-20T01:02:59;5.53;;;1.40;;
47896;SDS011;39629;51.400;5.494;2022-12-20T01:08:01;2.42;;;1.10;;
47896;SDS011;39629;51.400;5.494;2022-12-20T01:13:05;2.88;;;1.20;;
47896;SDS011;39629;51.400;5.494;2022-12-20T01:18:06;2.58;;;1.35;;
47896;SDS011;39629;51.400;5.494;2022-12-20T01:23:08;2.33;;;0.95;;
47896;SDS011;39629;51.400;5.494;2022-12-20T01:28:11;4.35;;;1.35;;
47896;SDS011;39629;51.400;5.494;2022-12-20T01:33:13;2.28;;;1.40;;
47896;SDS011;39629;51.400;5.494;2022-12-20T01:38:14;1.95;;;1.17;;
47896;SDS011;39629;51.400;5.494;2022-12-20T01:43:18;3.35;;;1.50;;
47896;SDS011;39629;51.400;5.494;2022-12-20T01:48:22;2.08;;;1.30;;
47896;SDS011;39629;51.400;5.494;2022-12-20T01:53:26;2.53;;;1.60;;
47896;SDS011;39629;51.400;5.494;2022-12-20T01:58:30;2.78;;;1.52;;
47896;SDS011;39629;51.400;5.494;2022-12-20T02:03:32;2.60;;;1.40;;
47896;SDS011;39629;51.400;5.494;2022-12-20T02:08:34;3.47;;;1.70;;
47896;SDS011;39629;51.400;5.494;2022-12-20T02:13:40;2.67;;;1.40;;
47896;SDS011;39629;51.400;5.494;2022-12-20T02:18:51;3.42;;;1.55;;
47896;SDS011;39629;51.400;5.494;2022-12-20T02:24:16;2.97;;;1.63;;
47896;SDS011;39629;51.400;5.494;2022-12-20T02:35:00;3.00;;;1.30;;
47896;SDS011;39629;51.400;5.494;2022-12-20T02:40:03;2.10;;;1.30;;
47896;SDS011;39629;51.400;5.494;2022-12-20T02:45:07;2.40;;;1.23;;
47896;SDS011;39629;51.400;5.494;2022-12-20T02:50:17;2.53;;;1.45;;
47896;SDS011;39629;51.400;5.494;2022-12-20T02:55:25;1.77;;;1.00;;
47896;SDS011;39629;51.400;5.494;2022-12-20T03:00:36;3.42;;;1.40;;
47896;SDS011;39629;51.400;5.494;2022-12-20T03:05:42;4.25;;;1.30;;
47896;SDS011;39629;51.400;5.494;2022-12-20T03:10:46;2.60;;;1.40;;
47896;SDS011;39629;51.400;5.494;2022-12-20T03:15:50;3.22;;;1.10;;
47896;SDS011;39629;51.400;5.494;2022-12-20T03:20:52;2.27;;;1.10;;
47896;SDS011;39629;51.400;5.494;2022-12-20T03:25:54;2.28;;;1.33;;
47896;SDS011;39629;51.400;5.494;2022-12-20T03:31:05;4.18;;;1.30;;
47896;SDS011;39629;51.400;5.494;2022-12-20T03:36:15;1.75;;;0.93;;
47896;SDS011;39629;51.400;5.494;2022-12-20T03:41:22;2.90;;;1.35;;
47896;SDS011;39629;51.400;5.494;2022-12-20T03:46:25;4.25;;;1.40;;
47896;SDS011;39629;51.400;5.494;2022-12-20T03:51:28;2.45;;;1.50;;
47896;SDS011;39629;51.400;5.494;2022-12-20T03:56:30;2.17;;;1.10;;
47896;SDS011;39629;51.400;5.494;2022-12-20T04:01:34;3.28;;;1.27;;
47896;SDS011;39629;51.400;5.494;2022-12-20T04:06:37;2.30;;;1.40;;
47896;SDS011;39629;51.400;5.494;2022-12-20T04:11:39;3.85;;;1.40;;
47896;SDS011;39629;51.400;5.494;2022-12-20T04:16:48;3.17;;;1.25;;
47896;SDS011;39629;51.400;5.494;2022-12-20T04:21:53;1.80;;;1.17;;
47896;SDS011;39629;51.400;5.494;2022-12-20T04:26:58;4.60;;;1.40;;
47896;SDS011;39629;51.400;5.494;2022-12-20T04:32:01;3.95;;;1.33;;
47896;SDS011;39629;51.400;5.494;2022-12-20T04:37:03;2.20;;;0.98;;
47896;SDS011;39629;51.400;5.494;2022-12-20T04:42:17;2.55;;;1.10;;
47896;SDS011;39629;51.400;5.494;2022-12-20T04:47:21;2.38;;;1.10;;
47896;SDS011;39629;51.400;5.494;2022-12-20T04:52:25;3.08;;;1.10;;
47896;SDS011;39629;51.400;5.494;2022-12-20T04:57:44;2.92;;;1.33;;
47896;SDS011;39629;51.400;5.494;2022-12-20T05:02:47;6.00;;;1.38;;
47896;SDS011;39629;51.400;5.494;2022-12-20T05:07:53;2.65;;;1.10;;
47896;SDS011;39629;51.400;5.494;2022-12-20T05:12:56;2.65;;;1.40;;
47896;SDS011;39629;51.400;5.494;2022-12-20T05:18:08;2.33;;;1.20;;
47896;SDS011;39629;51.400;5.494;2022-12-20T05:23:31;2.78;;;1.20;;
47896;SDS011;39629;51.400;5.494;2022-12-20T05:28:55;2.30;;;1.27;;
47896;SDS011;39629;51.400;5.494;2022-12-20T05:33:59;2.25;;;1.20;;
47896;SDS011;39629;51.400;5.494;2022-12-20T05:39:04;2.40;;;1.13;;
47896;SDS011;39629;51.400;5.494;2022-12-20T05:44:09;2.38;;;1.15;;
47896;SDS011;39629;51.400;5.494;2022-12-20T05:49:17;1.77;;;1.05;;
47896;SDS011;39629;51.400;5.494;2022-12-20T05:54:19;3.55;;;1.23;;
47896;SDS011;39629;51.400;5.494;2022-12-20T05:59:33;3.78;;;1.20;;
47896;SDS011;39629;51.400;5.494;2022-12-20T06:04:37;2.13;;;1.00;;
47896;SDS011;39629;51.400;5.494;2022-12-20T06:09:48;3.45;;;1.30;;
47896;SDS011;39629;51.400;5.494;2022-12-20T06:14:54;2.10;;;1.05;;
47896;SDS011;39629;51.400;5.494;2022-12-20T06:19:58;2.97;;;1.20;;
47896;SDS011;39629;51.400;5.494;2022-12-20T06:25:00;1.80;;;1.08;;
47896;SDS011;39629;51.400;5.494;2022-12-20T06:30:05;1.80;;;1.10;;
47896;SDS011;39629;51.400;5.494;2022-12-20T06:40:24;4.60;;;1.23;;
47896;SDS011;39629;51.400;5.494;2022-12-20T06:45:26;2.75;;;1.10;;
47896;SDS011;39629;51.400;5.494;2022-12-20T06:50:30;1.65;;;1.08;;
47896;SDS011;39629;51.400;5.494;2022-12-20T06:55:31;1.55;;;0.93;;
47896;SDS011;39629;51.400;5.494;2022-12-20T07:00:33;2.28;;;1.10;;
47896;SDS011;39629;51.400;5.494;2022-12-20T07:05:37;1.90;;;0.95;;
47896;SDS011;39629;51.400;5.494;2022-12-20T07:10:38;2.50;;;1.30;;
47896;SDS011;39629;51.400;5.494;2022-12-20T07:15:40;2.35;;;1.05;;
47896;SDS011;39629;51.400;5.494;2022-12-20T07:20:43;2.80;;;1.17;;
47896;SDS011;39629;51.400;5.494;2022-12-20T07:25:51;2.08;;;1.10;;
47896;SDS011;39629;51.400;5.494;2022-12-20T07:30:53;1.95;;;1.00;;
47896;SDS011;39629;51.400;5.494;2022-12-20T07:36:00;3.40;;;1.00;;
47896;SDS011;39629;51.400;5.494;2022-12-20T07:41:05;2.85;;;1.20;;
47896;SDS011;39629;51.400;5.494;2022-12-20T07:46:08;3.40;;;1.20;;
47896;SDS011;39629;51.400;5.494;2022-12-20T07:51:14;2.30;;;1.20;;
47896;SDS011;39629;51.400;5.494;2022-12-20T07:56:19;3.08;;;1.10;;
47896;SDS011;39629;51.400;5.494;2022-12-20T08:01:22;2.10;;;1.10;;
47896;SDS011;39629;51.400;5.494;2022-12-20T08:06:27;1.60;;;0.98;;
47896;SDS011;39629;51.400;5.494;2022-12-20T08:11:30;2.88;;;0.95;;
47896;SDS011;39629;51.400;5.494;2022-12-20T08:16:35;2.08;;;1.05;;
47896;SDS011;39629;51.400;5.494;2022-12-20T08:21:38;2.13;;;0.90;;
47896;SDS011;39629;51.400;5.494;2022-12-20T08:26:40;1.90;;;0.93;;
47896;SDS011;39629;51.400;5.494;2022-12-20T08:31:42;1.63;;;0.98;;
47896;SDS011;39629;51.400;5.494;2022-12-20T08:36:45;2.80;;;0.70;;
47896;SDS011;39629;51.400;5.494;2022-12-20T08:41:46;4.47;;;1.20;;
47896;SDS011;39629;51.400;5.494;2022-12-20T08:46:48;2.60;;;1.10;;
47896;SDS011;39629;51.400;5.494;2022-12-20T08:51:51;2.85;;;1.00;;
47896;SDS011;39629;51.400;5.494;2022-12-20T08:56:53;2.15;;;0.98;;
47896;SDS011;39629;51.400;5.494;2022-12-20T09:01:55;4.45;;;1.92;;
47896;SDS011;39629;51.400;5.494;2022-12-20T09:06:58;1.85;;;0.95;;
47896;SDS011;39629;51.400;5.494;2022-12-20T09:11:59;2.00;;;1.08;;
47896;SDS011;39629;51.400;5.494;2022-12-20T09:17:01;2.42;;;0.93;;
47896;SDS011;39629;51.400;5.494;2022-12-20T09:22:04;3.95;;;0.90;;
47896;SDS011;39629;51.400;5.494;2022-12-20T09:27:06;2.78;;;1.00;;
47896;SDS011;39629;51.400;5.494;2022-12-20T09:32:08;2.13;;;0.80;;
47896;SDS011;39629;51.400;5.494;2022-12-20T09:37:11;2.45;;;1.20;;
47896;SDS011;39629;51.400;5.494;2022-12-20T09:42:12;3.13;;;1.20;;
47896;SDS011;39629;51.400;5.494;2022-12-20T09:47:16;1.40;;;0.90;;
47896;SDS011;39629;51.400;5.494;2022-12-20T09:52:26;2.70;;;1.00;;
47896;SDS011;39629;51.400;5.494;2022-12-20T09:57:39;2.80;;;1.08;;
47896;SDS011;39629;51.400;5.494;2022-12-20T10:02:52;3.00;;;1.13;;
47896;SDS011;39629;51.400;5.494;2022-12-20T10:07:57;1.75;;;1.00;;
47896;SDS011;39629;51.400;5.494;2022-12-20T10:13:11;2.40;;;1.20;;
47896;SDS011;39629;51.400;5.494;2022-12-20T10:18:29;2.20;;;1.10;;
47896;SDS011;39629;51.400;5.494;2022-12-20T10:23:48;3.25;;;0.80;;
47896;SDS011;39629;51.400;5.494;2022-12-20T10:29:01;2.28;;;0.80;;
47896;SDS011;39629;51.400;5.494;2022-12-20T10:34:04;1.88;;;1.00;;
47896;SDS011;39629;51.400;5.494;2022-12-20T10:39:10;2.33;;;1.13;;
47896;SDS011;39629;51.400;5.494;2022-12-20T10:44:15;2.60;;;1.10;;
47896;SDS011;39629;51.400;5.494;2022-12-20T10:49:22;2.22;;;1.02;;
47896;SDS011;39629;51.400;5.494;2022-12-20T10:54:30;4.13;;;1.60;;
47896;SDS011;39629;51.400;5.494;2022-12-20T10:59:34;3.17;;;1.00;;
47896;SDS011;39629;51.400;5.494;2022-12-20T11:04:38;2.90;;;1.13;;
47896;SDS011;39629;51.400;5.494;2022-12-20T11:09:41;4.50;;;1.10;;
47896;SDS011;39629;51.400;5.494;2022-12-20T11:15:06;3.33;;;1.40;;
47896;SDS011;39629;51.400;5.494;2022-12-20T11:20:21;3.05;;;1.25;;
47896;SDS011;39629;51.400;5.494;2022-12-20T11:25:32;3.80;;;1.40;;
47896;SDS011;39629;51.400;5.494;2022-12-20T11:30:47;2.55;;;1.55;;
47896;SDS011;39629;51.400;5.494;2022-12-20T11:35:59;2.92;;;1.33;;
47896;SDS011;39629;51.400;5.494;2022-12-20T11:41:12;2.78;;;1.40;;
47896;SDS011;39629;51.400;5.494;2022-12-20T11:46:24;3.80;;;1.45;;
47896;SDS011;39629;51.400;5.494;2022-12-20T11:51:37;3.43;;;1.40;;
47896;SDS011;39629;51.400;5.494;2022-12-20T11:56:47;3.28;;;1.60;;
47896;SDS011;39629;51.400;5.494;2022-12-20T12:01:52;3.30;;;1.20;;
47896;SDS011;39629;51.400;5.494;2022-12-20T12:07:01;2.67;;;1.20;;
47896;SDS011;39629;51.400;5.494;2022-12-20T12:12:11;3.08;;;1.40;;
47896;SDS011;39629;51.400;5.494;2022-12-20T12:17:20;3.00;;;1.40;;
47896;SDS011;39629;51.400;5.494;2022-12-20T12:22:27;2.85;;;1.40;;
47896;SDS011;39629;51.400;5.494;2022-12-20T12:27:35;2.45;;;1.20;;
47896;SDS011;39629;51.400;5.494;2022-12-20T12:32:37;2.53;;;1.38;;
47896;SDS011;39629;51.400;5.494;2022-12-20T12:37:45;2.95;;;1.30;;
47896;SDS011;39629;51.400;5.494;2022-12-20T12:48:45;3.70;;;1.60;;
47896;SDS011;39629;51.400;5.494;2022-12-20T12:53:53;4.95;;;1.60;;
47896;SDS011;39629;51.400;5.494;2022-12-20T13:04:52;2.55;;;1.48;;
47896;SDS011;39629;51.400;5.494;2022-12-20T13:09:56;4.38;;;1.83;;
47896;SDS011;39629;51.400;5.494;2022-12-20T13:14:59;4.00;;;1.70;;
47896;SDS011;39629;51.400;5.494;2022-12-20T13:20:14;3.40;;;1.30;;
47896;SDS011;39629;51.400;5.494;2022-12-20T13:25:26;3.03;;;1.80;;
47896;SDS011;39629;51.400;5.494;2022-12-20T13:30:31;3.17;;;1.67;;
47896;SDS011;39629;51.400;5.494;2022-12-20T13:35:43;4.22;;;1.50;;
47896;SDS011;39629;51.400;5.494;2022-12-20T13:40:55;2.90;;;1.52;;
47896;SDS011;39629;51.400;5.494;2022-12-20T13:46:00;2.92;;;1.50;;
47896;SDS011;39629;51.400;5.494;2022-12-20T13:51:16;2.47;;;1.45;;
47896;SDS011;39629;51.400;5.494;2022-12-20T13:56:26;2.67;;;1.50;;
47896;SDS011;39629;51.400;5.494;2022-12-20T14:01:33;4.30;;;1.45;;
47896;SDS011;39629;51.400;5.494;2022-12-20T14:06:37;3.25;;;1.48;;
47896;SDS011;39629;51.400;5.494;2022-12-20T14:11:45;3.20;;;1.45;;
47896;SDS011;39629;51.400;5.494;2022-12-20T14:16:47;3.08;;;1.58;;
47896;SDS011;39629;51.400;5.494;2022-12-20T14:21:50;3.88;;;2.10;;
47896;SDS011;39629;51.400;5.494;2022-12-20T14:26:52;2.47;;;1.33;;
47896;SDS011;39629;51.400;5.494;2022-12-20T14:31:54;4.30;;;1.60;;
47896;SDS011;39629;51.400;5.494;2022-12-20T14:42:33;4.65;;;1.90;;
47896;SDS011;39629;51.400;5.494;2022-12-20T14:47:36;2.95;;;1.67;;
47896;SDS011;39629;51.400;5.494;2022-12-20T14:52:40;4.32;;;1.85;;
47896;SDS011;39629;51.400;5.494;2022-12-20T14:57:43;3.38;;;1.30;;
47896;SDS011;39629;51.400;5.494;2022-12-20T15:02:48;4.05;;;1.50;;
47896;SDS011;39629;51.400;5.494;2022-12-20T15:07:53;4.53;;;1.98;;
47896;SDS011;39629;51.400;5.494;2022-12-20T15:12:55;5.10;;;1.92;;
47896;SDS011;39629;51.400;5.494;2022-12-20T15:17:56;3.25;;;2.17;;
47896;SDS011;39629;51.400;5.494;2022-12-20T15:23:00;5.00;;;2.30;;
47896;SDS011;39629;51.400;5.494;2022-12-20T15:28:07;3.27;;;1.93;;
47896;SDS011;39629;51.400;5.494;2022-12-20T15:33:14;3.53;;;2.05;;
47896;SDS011;39629;51.400;5.494;2022-12-20T15:38:20;3.60;;;1.85;;
47896;SDS011;39629;51.400;5.494;2022-12-20T15:43:23;3.55;;;2.00;;
47896;SDS011;39629;51.400;5.494;2022-12-20T15:48:26;4.10;;;1.92;;
47896;SDS011;39629;51.400;5.494;2022-12-20T15:53:31;3.13;;;1.92;;
47896;SDS011;39629;51.400;5.494;2022-12-20T15:58:34;4.22;;;1.83;;
47896;SDS011;39629;51.400;5.494;2022-12-20T16:03:36;4.22;;;2.40;;
47896;SDS011;39629;51.400;5.494;2022-12-20T16:08:39;4.70;;;2.05;;
47896;SDS011;39629;51.400;5.494;2022-12-20T16:13:42;3.17;;;1.55;;
47896;SDS011;39629;51.400;5.494;2022-12-20T16:18:44;3.40;;;2.03;;
47896;SDS011;39629;51.400;5.494;2022-12-20T16:23:47;5.35;;;2.40;;
47896;SDS011;39629;51.400;5.494;2022-12-20T16:28:50;3.45;;;2.08;;
47896;SDS011;39629;51.400;5.494;2022-12-20T16:33:53;4.28;;;2.13;;
47896;SDS011;39629;51.400;5.494;2022-12-20T16:38:57;5.05;;;2.30;;
47896;SDS011;39629;51.400;5.494;2022-12-20T16:44:00;3.42;;;1.67;;
47896;SDS011;39629;51.400;5.494;2022-12-20T16:49:03;4.93;;;2.40;;
47896;SDS011;39629;51.400;5.494;2022-12-20T16:54:06;4.00;;;2.28;;
47896;SDS011;39629;51.400;5.494;2022-12-20T16:59:14;4.35;;;2.30;;
47896;SDS011;39629;51.400;5.494;2022-12-20T17:04:16;5.25;;;2.63;;
47896;SDS011;39629;51.400;5.494;2022-12-20T17:09:20;4.60;;;2.50;;
47896;SDS011;39629;51.400;5.494;2022-12-20T17:14:22;5.50;;;2.58;;
47896;SDS011;39629;51.400;5.494;2022-12-20T17:19:23;6.50;;;3.05;;
47896;SDS011;39629;51.400;5.494;2022-12-20T17:24:26;4.50;;;3.17;;
47896;SDS011;39629;51.400;5.494;2022-12-20T17:29:28;4.95;;;3.10;;
47896;SDS011;39629;51.400;5.494;2022-12-20T17:34:30;5.93;;;3.00;;
47896;SDS011;39629;51.400;5.494;2022-12-20T17:39:33;4.03;;;2.80;;
47896;SDS011;39629;51.400;5.494;2022-12-20T17:44:35;4.85;;;3.10;;
47896;SDS011;39629;51.400;5.494;2022-12-20T17:49:36;5.28;;;3.40;;
47896;SDS011;39629;51.400;5.494;2022-12-20T17:54:39;7.07;;;3.85;;
47896;SDS011;39629;51.400;5.494;2022-12-20T17:59:41;5.30;;;3.50;;
47896;SDS011;39629;51.400;5.494;2022-12-20T18:04:43;5.13;;;3.28;;
47896;SDS011;39629;51.400;5.494;2022-12-20T18:09:47;6.35;;;3.63;;
47896;SDS011;39629;51.400;5.494;2022-12-20T18:14:50;5.72;;;3.88;;
47896;SDS011;39629;51.400;5.494;2022-12-20T18:19:51;5.00;;;3.60;;
47896;SDS011;39629;51.400;5.494;2022-12-20T18:24:56;6.32;;;3.70;;
47896;SDS011;39629;51.400;5.494;2022-12-20T18:29:57;6.70;;;3.78;;
47896;SDS011;39629;51.400;5.494;2022-12-20T18:34:59;7.22;;;4.13;;
47896;SDS011;39629;51.400;5.494;2022-12-20T18:40:02;7.72;;;4.20;;
47896;SDS011;39629;51.400;5.494;2022-12-20T18:45:05;6.43;;;4.22;;
47896;SDS011;39629;51.400;5.494;2022-12-20T18:50:07;7.45;;;4.60;;
47896;SDS011;39629;51.400;5.494;2022-12-20T18:55:13;5.38;;;3.67;;
47896;SDS011;39629;51.400;5.494;2022-12-20T19:00:15;6.88;;;4.00;;
47896;SDS011;39629;51.400;5.494;2022-12-20T19:05:18;6.78;;;4.10;;
47896;SDS011;39629;51.400;5.494;2022-12-20T19:10:21;6.95;;;3.80;;
47896;SDS011;39629;51.400;5.494;2022-12-20T19:15:22;4.95;;;3.65;;
47896;SDS011;39629;51.400;5.494;2022-12-20T19:20:24;6.28;;;4.10;;
47896;SDS011;39629;51.400;5.494;2022-12-20T19:25:27;7.15;;;4.25;;
47896;SDS011;39629;51.400;5.494;2022-12-20T19:30:29;6.47;;;4.03;;
47896;SDS011;39629;51.400;5.494;2022-12-20T19:35:31;7.50;;;4.30;;
47896;SDS011;39629;51.400;5.494;2022-12-20T19:40:34;7.35;;;3.60;;
47896;SDS011;39629;51.400;5.494;2022-12-20T19:45:36;6.97;;;4.20;;
47896;SDS011;39629;51.400;5.494;2022-12-20T19:50:37;7.05;;;3.90;;
47896;SDS011;39629;51.400;5.494;2022-12-20T19:55:40;6.05;;;4.30;;
47896;SDS011;39629;51.400;5.494;2022-12-20T20:00:45;6.35;;;4.45;;
47896;SDS011;39629;51.400;5.494;2022-12-20T20:05:47;7.30;;;4.82;;
47896;SDS011;39629;51.400;5.494;2022-12-20T20:10:52;5.90;;;4.25;;
47896;SDS011;39629;51.400;5.494;2022-12-20T20:15:55;8.02;;;4.88;;
47896;SDS011;39629;51.400;5.494;2022-12-20T20:20:57;6.18;;;4.25;;
47896;SDS011;39629;51.400;5.494;2022-12-20T20:26:00;10.98;;;5.72;;
47896;SDS011;39629;51.400;5.494;2022-12-20T20:31:07;9.00;;;5.38;;
47896;SDS011;39629;51.400;5.494;2022-12-20T20:36:11;7.93;;;5.25;;
47896;SDS011;39629;51.400;5.494;2022-12-20T20:41:15;9.57;;;5.38;;
47896;SDS011;39629;51.400;5.494;2022-12-20T20:46:17;8.37;;;5.37;;
47896;SDS011;39629;51.400;5.494;2022-12-20T20:51:19;6.03;;;3.75;;
47896;SDS011;39629;51.400;5.494;2022-12-20T20:56:22;8.10;;;4.60;;
47896;SDS011;39629;51.400;5.494;2022-12-20T21:01:24;7.32;;;4.78;;
47896;SDS011;39629;51.400;5.494;2022-12-20T21:06:25;11.77;;;5.15;;
47896;SDS011;39629;51.400;5.494;2022-12-20T21:11:30;9.15;;;5.53;;
47896;SDS011;39629;51.400;5.494;2022-12-20T21:16:32;10.40;;;5.80;;
47896;SDS011;39629;51.400;5.494;2022-12-20T21:21:34;9.10;;;5.35;;
47896;SDS011;39629;51.400;5.494;2022-12-20T21:26:37;10.98;;;5.32;;
47896;SDS011;39629;51.400;5.494;2022-12-20T21:31:39;10.98;;;5.72;;
47896;SDS011;39629;51.400;5.494;2022-12-20T21:36:40;9.82;;;5.15;;
47896;SDS011;39629;51.400;5.494;2022-12-20T21:41:43;7.65;;;4.93;;
47896;SDS011;39629;51.400;5.494;2022-12-20T21:46:45;7.00;;;4.55;;
47896;SDS011;39629;51.400;5.494;2022-12-20T21:51:46;8.15;;;5.18;;
47896;SDS011;39629;51.400;5.494;2022-12-20T21:56:49;8.70;;;5.35;;
47896;SDS011;39629;51.400;5.494;2022-12-20T22:01:51;7.22;;;4.88;;
47896;SDS011;39629;51.400;5.494;2022-12-20T22:06:53;8.88;;;5.82;;
47896;SDS011;39629;51.400;5.494;2022-12-20T22:11:56;9.02;;;5.88;;
47896;SDS011;39629;51.400;5.494;2022-12-20T22:16:57;9.55;;;5.68;;
47896;SDS011;39629;51.400;5.494;2022-12-20T22:21:59;8.50;;;5.45;;
47896;SDS011;39629;51.400;5.494;2022-12-20T22:27:02;11.77;;;6.18;;
47896;SDS011;39629;51.400;5.494;2022-12-20T22:32:04;10.75;;;5.80;;
47896;SDS011;39629;51.400;5.494;2022-12-20T22:37:05;10.60;;;6.13;;
47896;SDS011;39629;51.400;5.494;2022-12-20T22:42:08;9.73;;;5.90;;
47896;SDS011;39629;51.400;5.494;2022-12-20T22:47:10;11.35;;;6.30;;
47896;SDS011;39629;51.400;5.494;2022-12-20T22:52:12;13.77;;;6.90;;
47896;SDS011;39629;51.400;5.494;2022-12-20T22:57:15;13.52;;;7.70;;
47896;SDS011;39629;51.400;5.494;2022-12-20T23:02:16;11.93;;;7.53;;
47896;SDS011;39629;51.400;5.494;2022-12-20T23:07:18;16.13;;;7.35;;
47896;SDS011;39629;51.400;5.494;2022-12-20T23:12:21;16.25;;;8.20;;
47896;SDS011;39629;51.400;5.494;2022-12-20T23:17:40;15.10;;;7.47;;
47896;SDS011;39629;51.400;5.494;2022-12-20T23:22:42;11.75;;;6.82;;
47896;SDS011;39629;51.400;5.494;2022-12-20T23:27:46;12.73;;;6.72;;
47896;SDS011;39629;51.400;5.494;2022-12-20T23:32:49;13.85;;;6.75;;
47896;SDS011;39629;51.400;5.494;2022-12-20T23:37:53;12.68;;;7.00;;
47896;SDS011;39629;51.400;5.494;2022-12-20T23:42:57;13.80;;;7.03;;
47896;SDS011;39629;51.400;5.494;2022-12-20T23:47:58;14.88;;;6.60;;
47896;SDS011;39629;51.400;5.494;2022-12-20T23:53:00;16.27;;;7.35;;
47896;SDS011;39629;51.400;5.494;2022-12-20T23:58:03;15.60;;;8.00;;
